Hauptseite
METAR-TAF:

METAR-TAF

Flughäfen :

Verkehrslandeplatz Hof-Plauen

Hof, Deutschland

Breite: 50-19N, Länge: 011-53E, Höhe: 567 m

Beobachtung

Neuester Wetterbericht von vor 13 Stunden und 19 Minuten, um 15:50 UTC
Wind 10 kt aus Ost, variierte zwischen Ost/Nordost und Südost
Temperatur 18°C
Luftfeuchtigkeit 28%
Luftdruck 1021 hPa
Sichtweite 10 km oder mehr
keine Wolken unter 1500 m und keine Kumulonimbus oder Gewitterwolken

METAR: EDQM 201550Z 10010KT 070V140 CAVOK 18/M01 Q1021

Zeit: 07:09 (05:09 UTC)

Prognose

Neuester Wetterbericht von vor 15 Stunden und 9 Minuten, um 14:00 UTC
Gültige Prognose vom 20 um 15 UTC bis 20 um 24 UTC
Wind 7 kt aus Ost
Sichtweite 10 km oder mehr
keine Wolken unter 1500 m und keine Kumulonimbus oder Gewitterwolken

TAF: EDQM 201400Z 2015/2024 09007KT CAVOK

Wetterbeobachtungen und Prognosen von mehr als 4000 Flughäfen (METAR und TAF Bericht).

Die verfügbaren Stationen werden durch gelbe und rote Markierungen auf der Karte dargestellt.

Führen Sie die Maus auf sie, um den Namen der Station zu sehen.

Darauf klicken, um die Beobachtung von Wetterbeobachtungen und Prognosen zu sehen.

Um die Karte zu ändern : klicken Sie auf den grünen Tasten mit einem schwarzen Kreuz Zum Vergrößern, auf den grünen Button mit einem Gedankenstrich zu verkleinern, oder auf die grünen Pfeile für benachbarte Karten.


METAR-TAF: